createdAt,value
2023-04-06T00:05:00.794Z,1.33
2023-04-06T00:10:28.650Z,0.78
2023-04-06T00:15:54.108Z,0.88
2023-04-06T00:21:19.518Z,0.58
2023-04-06T00:27:35.940Z,1.24
2023-04-06T00:32:59.855Z,0.59
2023-04-06T00:38:23.914Z,0.48
2023-04-06T00:43:49.821Z,0.38
2023-04-06T00:49:16.221Z,1.00
2023-04-06T00:55:05.392Z,0.89
2023-04-06T01:00:31.455Z,0.87
2023-04-06T01:05:58.710Z,0.77
2023-04-06T01:11:25.765Z,1.13
2023-04-06T01:16:52.182Z,1.07
2023-04-06T01:22:18.406Z,0.55
2023-04-06T01:27:39.704Z,1.06
2023-04-06T01:33:05.855Z,1.12
2023-04-06T01:38:32.618Z,1.11
2023-04-06T01:43:58.484Z,1.17
2023-04-06T01:49:20.817Z,0.62
2023-04-06T01:54:42.949Z,1.04
2023-04-06T02:00:08.611Z,0.71
2023-04-06T02:05:37.894Z,0.57
2023-04-06T02:11:02.397Z,0.55
2023-04-06T02:16:28.496Z,0.61
2023-04-06T02:21:55.968Z,0.94
2023-04-06T02:27:21.056Z,0.63
2023-04-06T02:32:47.105Z,1.04
2023-04-06T02:38:12.228Z,0.79
2023-04-06T02:43:37.726Z,0.83
2023-04-06T02:49:02.590Z,0.87
2023-04-06T02:54:24.824Z,0.68
2023-04-06T02:59:48.136Z,0.37
2023-04-06T03:05:14.164Z,0.75
2023-04-06T03:11:03.831Z,0.91
2023-04-06T03:16:27.836Z,0.87
2023-04-06T03:21:53.452Z,0.47
2023-04-06T03:27:17.686Z,0.99
2023-04-06T03:32:44.039Z,0.71
2023-04-06T03:38:10.327Z,0.61
2023-04-06T03:43:32.718Z,0.53
2023-04-06T03:48:58.188Z,0.79
2023-04-06T03:54:20.367Z,1.16
2023-04-06T03:59:46.409Z,0.92
2023-04-06T04:05:10.108Z,0.49
2023-04-06T04:10:34.392Z,0.61
2023-04-06T04:15:55.627Z,0.92
2023-04-06T04:21:23.159Z,0.75
2023-04-06T04:26:49.509Z,0.83
2023-04-06T04:32:12.386Z,0.39
2023-04-06T04:37:38.741Z,0.86
2023-04-06T04:43:04.847Z,0.98
2023-04-06T04:48:36.413Z,1.08
2023-04-06T04:54:08.051Z,0.39
2023-04-06T04:59:30.978Z,0.56
2023-04-06T05:04:56.821Z,1.20
2023-04-06T05:10:24.723Z,1.06
2023-04-06T05:15:47.850Z,1.16
2023-04-06T05:21:13.100Z,0.68
2023-04-06T05:26:37.108Z,0.77
2023-04-06T05:32:02.356Z,0.62
2023-04-06T05:37:27.151Z,1.35
2023-04-06T05:43:07.772Z,1.04
2023-04-06T05:48:31.257Z,1.50
2023-04-06T05:53:56.010Z,1.65
2023-04-06T05:59:19.374Z,1.02
2023-04-06T06:04:43.903Z,1.22
2023-04-06T06:10:08.389Z,1.12
2023-04-06T06:15:30.821Z,0.84
2023-04-06T06:20:56.890Z,1.44
2023-04-06T06:26:21.095Z,0.82
2023-04-06T06:31:45.884Z,1.23
2023-04-06T06:37:09.215Z,1.10
2023-04-06T06:42:30.806Z,1.23
2023-04-06T06:47:55.749Z,1.01
2023-04-06T06:53:34.793Z,1.23
2023-04-06T06:58:58.176Z,0.56
2023-04-06T07:04:22.817Z,1.16
2023-04-06T07:09:46.160Z,0.68
2023-04-06T07:15:11.488Z,1.51
2023-04-06T07:20:37.257Z,1.03
2023-04-06T07:26:00.850Z,1.46
2023-04-06T07:31:22.309Z,0.97
2023-04-06T07:36:47.617Z,1.80
2023-04-06T07:42:10.441Z,2.24
2023-04-06T07:47:35.489Z,0.93
2023-04-06T07:52:57.913Z,1.13
2023-04-06T07:58:23.925Z,1.20
2023-04-06T08:03:46.926Z,1.61
2023-04-06T08:09:12.755Z,1.72
2023-04-06T08:14:36.449Z,1.48
2023-04-06T08:19:59.264Z,1.34
2023-04-06T08:25:23.479Z,1.52
2023-04-06T08:30:45.944Z,2.08
2023-04-06T08:36:09.794Z,0.86
2023-04-06T08:41:32.041Z,2.06
2023-04-06T08:46:56.369Z,1.05
2023-04-06T08:52:19.534Z,1.55
2023-04-06T08:57:44.039Z,1.52
2023-04-06T09:03:07.580Z,1.67
2023-04-06T09:08:32.127Z,1.44
2023-04-06T09:13:54.936Z,1.49
2023-04-06T09:19:18.933Z,2.01
2023-04-06T09:24:43.069Z,2.18
2023-04-06T09:30:52.492Z,2.30
2023-04-06T09:36:16.010Z,1.64
2023-04-06T09:41:47.676Z,1.48
2023-04-06T09:47:07.304Z,1.57
2023-04-06T09:52:32.313Z,1.54
2023-04-06T09:57:58.912Z,1.50
2023-04-06T10:03:40.063Z,1.66
2023-04-06T10:09:05.687Z,2.05
2023-04-06T10:14:31.316Z,2.01
2023-04-06T10:19:55.051Z,1.71
2023-04-06T10:25:20.073Z,1.71
2023-04-06T10:31:08.138Z,1.68
2023-04-06T10:36:32.770Z,1.18
2023-04-06T10:41:58.794Z,1.50
2023-04-06T10:47:59.809Z,1.85
2023-04-06T10:53:50.422Z,1.70
2023-04-06T10:59:13.296Z,1.84
2023-04-06T11:04:41.017Z,1.97
2023-04-06T11:10:17.521Z,2.06
2023-04-06T11:15:39.573Z,2.55
2023-04-06T11:21:02.392Z,1.99
2023-04-06T11:26:28.118Z,1.74
2023-04-06T11:31:55.527Z,1.00
2023-04-06T11:37:15.732Z,1.80
2023-04-06T11:42:38.394Z,1.15
2023-04-06T11:48:08.152Z,0.91
2023-04-06T11:53:33.762Z,1.57
2023-04-06T11:59:05.735Z,1.51
2023-04-06T12:04:31.161Z,1.31
2023-04-06T12:10:20.515Z,1.62
2023-04-06T12:15:43.228Z,1.57
2023-04-06T12:21:08.876Z,1.59
2023-04-06T12:26:34.584Z,1.28
2023-04-06T12:31:59.017Z,2.15
2023-04-06T12:37:21.529Z,1.63
2023-04-06T12:42:47.265Z,1.87
2023-04-06T12:48:12.087Z,1.49
2023-04-06T12:53:38.620Z,1.76
2023-04-06T12:59:04.805Z,1.66
2023-04-06T13:04:56.480Z,2.20
2023-04-06T13:10:22.080Z,1.90
2023-04-06T13:15:47.526Z,1.55
2023-04-06T13:21:12.142Z,1.58
2023-04-06T13:27:01.188Z,2.01
2023-04-06T13:32:27.020Z,1.80
2023-04-06T13:37:52.377Z,1.55
2023-04-06T13:43:18.212Z,2.32
2023-04-06T13:48:44.923Z,1.71
2023-04-06T13:54:10.041Z,2.15
2023-04-06T13:59:35.077Z,1.65
2023-04-06T14:05:00.737Z,1.51
2023-04-06T14:11:05.350Z,2.51
2023-04-06T14:16:25.860Z,2.40
2023-04-06T14:21:51.369Z,1.71
2023-04-06T14:27:15.474Z,2.14
2023-04-06T14:32:40.599Z,1.60
2023-04-06T14:38:07.075Z,1.97
2023-04-06T14:43:32.526Z,1.34
2023-04-06T14:48:58.116Z,1.36
2023-04-06T14:54:22.819Z,1.41
2023-04-06T15:00:06.259Z,1.60
2023-04-06T15:05:29.029Z,1.25
2023-04-06T15:10:54.717Z,1.40
2023-04-06T15:16:20.140Z,1.46
2023-04-06T15:21:44.531Z,1.36
2023-04-06T15:27:10.832Z,0.95
2023-04-06T15:32:33.887Z,1.32
2023-04-06T15:37:59.406Z,1.34
2023-04-06T15:43:21.911Z,1.13
2023-04-06T15:49:13.405Z,2.07
2023-04-06T15:54:37.800Z,1.45
2023-04-06T15:59:58.990Z,1.57
2023-04-06T16:05:26.171Z,1.62
2023-04-06T16:10:51.173Z,1.20
2023-04-06T16:16:17.114Z,1.41
2023-04-06T16:21:42.684Z,1.09
2023-04-06T16:27:23.758Z,1.30
2023-04-06T16:32:47.941Z,1.07
2023-04-06T16:38:13.346Z,1.33
2023-04-06T16:43:34.798Z,0.91
2023-04-06T16:48:59.902Z,0.90
2023-04-06T16:54:21.033Z,1.34
2023-04-06T17:00:13.541Z,1.14
2023-04-06T17:05:38.278Z,0.72
2023-04-06T17:11:04.576Z,0.83
2023-04-06T17:16:29.000Z,0.77
2023-04-06T17:21:53.481Z,1.04
2023-04-06T17:27:17.603Z,0.75
2023-04-06T17:32:43.097Z,1.09
2023-04-06T17:38:08.871Z,0.64
2023-04-06T17:43:33.436Z,0.54
2023-04-06T17:48:57.923Z,1.01
2023-04-06T17:54:22.176Z,0.86
2023-04-06T18:00:06.042Z,1.12
2023-04-06T18:06:10.110Z,1.00
2023-04-06T18:11:30.259Z,0.96
2023-04-06T18:17:11.676Z,1.13
2023-04-06T18:22:32.823Z,0.88
2023-04-06T18:27:57.543Z,1.02
2023-04-06T18:33:21.227Z,0.86
2023-04-06T18:38:45.352Z,1.19
2023-04-06T18:44:10.950Z,1.14
2023-04-06T18:49:35.701Z,0.98
2023-04-06T18:55:02.044Z,0.73
2023-04-06T19:00:55.221Z,1.45
2023-04-06T19:06:17.523Z,1.32
2023-04-06T19:12:18.068Z,1.56
2023-04-06T19:17:42.599Z,0.80
2023-04-06T19:23:10.483Z,0.66
2023-04-06T19:28:35.594Z,0.67
2023-04-06T19:34:00.619Z,0.93
2023-04-06T19:39:18.728Z,1.16
2023-04-06T19:44:41.835Z,1.16
2023-04-06T19:50:06.695Z,0.90
2023-04-06T19:55:32.049Z,1.16
2023-04-06T20:01:10.353Z,1.36
2023-04-06T20:06:31.692Z,1.44
2023-04-06T20:11:54.266Z,1.02
2023-04-06T20:17:20.726Z,1.23
2023-04-06T20:22:45.466Z,1.20
2023-04-06T20:28:10.895Z,1.20
2023-04-06T20:33:34.468Z,2.02
2023-04-06T20:38:58.414Z,1.40
2023-04-06T20:44:49.914Z,1.99
2023-04-06T20:50:13.812Z,1.52
2023-04-06T20:55:39.565Z,1.28
2023-04-06T21:01:05.015Z,1.48
2023-04-06T21:06:27.209Z,1.33
2023-04-06T21:11:54.023Z,1.61
2023-04-06T21:17:25.214Z,1.56
2023-04-06T21:23:06.639Z,1.88
2023-04-06T21:28:29.373Z,1.68
2023-04-06T21:33:55.320Z,1.42
2023-04-06T21:39:22.110Z,1.01
2023-04-06T21:44:47.637Z,1.65
2023-04-06T21:50:13.712Z,1.36
2023-04-06T21:55:57.333Z,1.81
2023-04-06T22:01:21.425Z,1.47
2023-04-06T22:06:46.792Z,1.36
2023-04-06T22:12:12.419Z,1.74
2023-04-06T22:17:35.364Z,1.71
2023-04-06T22:22:59.348Z,1.59
2023-04-06T22:28:20.296Z,1.56
2023-04-06T22:33:45.942Z,1.26
2023-04-06T22:39:11.321Z,1.92
2023-04-06T22:44:36.832Z,1.47
2023-04-06T22:49:59.374Z,1.33
2023-04-06T22:55:25.895Z,1.40
2023-04-06T23:00:50.365Z,1.51
2023-04-06T23:06:16.289Z,0.93
2023-04-06T23:12:09.640Z,1.95
2023-04-06T23:17:34.633Z,1.32
2023-04-06T23:22:59.887Z,1.52
2023-04-06T23:28:22.389Z,1.00
2023-04-06T23:34:19.284Z,1.95
2023-04-06T23:39:41.927Z,1.30
2023-04-06T23:45:04.099Z,1.08
2023-04-06T23:50:29.568Z,0.97
2023-04-06T23:55:53.965Z,0.83
